sensor_id;sensor_type;location;lat;lon;timestamp;pressure;altitude;pressure_sealevel;temperature;humidity
13593;BME280;6867;50.998;4.250;2023-05-12T00:00:10;101406.25;;;15.74;83.00
13593;BME280;6867;50.998;4.250;2023-05-12T00:02:37;101411.03;;;15.72;82.90
13593;BME280;6867;50.998;4.250;2023-05-12T00:05:04;101410.47;;;15.69;83.16
13593;BME280;6867;50.998;4.250;2023-05-12T00:07:31;101408.50;;;15.77;83.16
13593;BME280;6867;50.998;4.250;2023-05-12T00:09:59;101405.81;;;15.77;83.07
13593;BME280;6867;50.998;4.250;2023-05-12T00:12:26;101410.00;;;15.91;82.60
13593;BME280;6867;50.998;4.250;2023-05-12T00:14:53;101405.13;;;15.81;82.73
13593;BME280;6867;50.998;4.250;2023-05-12T00:17:20;101402.84;;;15.78;82.66
13593;BME280;6867;50.998;4.250;2023-05-12T00:19:46;101415.31;;;15.61;83.24
13593;BME280;6867;50.998;4.250;2023-05-12T00:22:13;101413.09;;;15.76;83.06
13593;BME280;6867;50.998;4.250;2023-05-12T00:24:41;101412.47;;;15.56;83.18
13593;BME280;6867;50.998;4.250;2023-05-12T00:27:09;101408.44;;;15.65;83.29
13593;BME280;6867;50.998;4.250;2023-05-12T00:29:35;101411.78;;;15.60;84.03
13593;BME280;6867;50.998;4.250;2023-05-12T00:32:03;101404.50;;;15.61;84.02
13593;BME280;6867;50.998;4.250;2023-05-12T00:34:30;101408.44;;;15.65;83.89
13593;BME280;6867;50.998;4.250;2023-05-12T00:36:56;101405.06;;;15.63;84.14
13593;BME280;6867;50.998;4.250;2023-05-12T00:39:23;101403.56;;;15.49;84.35
13593;BME280;6867;50.998;4.250;2023-05-12T00:41:54;101410.63;;;15.50;84.44
13593;BME280;6867;50.998;4.250;2023-05-12T00:44:23;101405.94;;;15.63;84.76
13593;BME280;6867;50.998;4.250;2023-05-12T00:46:50;101405.06;;;15.63;84.61
13593;BME280;6867;50.998;4.250;2023-05-12T00:49:17;101408.94;;;15.55;84.71
13593;BME280;6867;50.998;4.250;2023-05-12T00:51:44;101392.56;;;15.68;84.07
13593;BME280;6867;50.998;4.250;2023-05-12T00:54:11;101398.84;;;15.62;84.74
13593;BME280;6867;50.998;4.250;2023-05-12T00:56:38;101398.41;;;15.65;84.57
13593;BME280;6867;50.998;4.250;2023-05-12T00:59:05;101391.75;;;15.68;84.64
13593;BME280;6867;50.998;4.250;2023-05-12T01:01:33;101386.38;;;15.80;84.24
13593;BME280;6867;50.998;4.250;2023-05-12T01:04:01;101391.34;;;15.64;84.27
13593;BME280;6867;50.998;4.250;2023-05-12T01:06:34;101393.22;;;15.82;84.13
13593;BME280;6867;50.998;4.250;2023-05-12T01:09:03;101388.72;;;15.76;84.20
13593;BME280;6867;50.998;4.250;2023-05-12T01:11:30;101388.81;;;15.63;84.46
13593;BME280;6867;50.998;4.250;2023-05-12T01:13:57;101387.44;;;15.79;84.24
13593;BME280;6867;50.998;4.250;2023-05-12T01:16:30;101390.50;;;15.82;84.10
13593;BME280;6867;50.998;4.250;2023-05-12T01:19:04;101385.09;;;15.82;83.97
13593;BME280;6867;50.998;4.250;2023-05-12T01:21:31;101381.31;;;15.83;84.09
13593;BME280;6867;50.998;4.250;2023-05-12T01:24:01;101384.72;;;15.79;84.25
13593;BME280;6867;50.998;4.250;2023-05-12T01:26:29;101389.25;;;15.85;83.92
13593;BME280;6867;50.998;4.250;2023-05-12T01:28:58;101384.53;;;15.92;84.02
13593;BME280;6867;50.998;4.250;2023-05-12T01:31:26;101385.09;;;15.82;84.38
13593;BME280;6867;50.998;4.250;2023-05-12T01:33:53;101388.03;;;15.81;84.73
13593;BME280;6867;50.998;4.250;2023-05-12T01:36:19;101381.94;;;15.85;84.56
13593;BME280;6867;50.998;4.250;2023-05-12T01:38:46;101384.34;;;15.75;84.55
13593;BME280;6867;50.998;4.250;2023-05-12T01:41:12;101383.66;;;15.80;84.30
13593;BME280;6867;50.998;4.250;2023-05-12T01:43:40;101389.16;;;15.73;85.02
13593;BME280;6867;50.998;4.250;2023-05-12T01:46:07;101382.38;;;15.64;85.04
13593;BME280;6867;50.998;4.250;2023-05-12T01:48:35;101395.38;;;15.37;86.33
13593;BME280;6867;50.998;4.250;2023-05-12T01:51:01;101400.47;;;15.27;87.81
13593;BME280;6867;50.998;4.250;2023-05-12T01:53:31;101400.88;;;15.30;87.83
13593;BME280;6867;50.998;4.250;2023-05-12T01:55:58;101392.94;;;15.29;87.90
13593;BME280;6867;50.998;4.250;2023-05-12T01:58:25;101395.38;;;15.37;87.73
13593;BME280;6867;50.998;4.250;2023-05-12T02:00:53;101393.19;;;15.45;87.68
13593;BME280;6867;50.998;4.250;2023-05-12T02:03:19;101389.41;;;15.47;87.78
13593;BME280;6867;50.998;4.250;2023-05-12T02:05:46;101385.50;;;15.67;86.71
13593;BME280;6867;50.998;4.250;2023-05-12T02:08:13;101381.00;;;15.91;85.86
13593;BME280;6867;50.998;4.250;2023-05-12T02:10:39;101367.97;;;16.00;85.11
13593;BME280;6867;50.998;4.250;2023-05-12T02:13:06;101376.06;;;15.70;85.81
13593;BME280;6867;50.998;4.250;2023-05-12T02:15:33;101373.78;;;15.49;86.66
13593;BME280;6867;50.998;4.250;2023-05-12T02:18:01;101379.16;;;15.55;87.08
13593;BME280;6867;50.998;4.250;2023-05-12T02:20:28;101372.88;;;15.91;86.26
13593;BME280;6867;50.998;4.250;2023-05-12T02:22:55;101369.41;;;16.03;84.74
13593;BME280;6867;50.998;4.250;2023-05-12T02:25:22;101371.38;;;15.96;85.07
13593;BME280;6867;50.998;4.250;2023-05-12T02:27:48;101364.38;;;15.88;84.73
13593;BME280;6867;50.998;4.250;2023-05-12T02:30:15;101364.63;;;15.86;84.58
13593;BME280;6867;50.998;4.250;2023-05-12T02:32:42;101365.94;;;15.96;84.90
13593;BME280;6867;50.998;4.250;2023-05-12T02:35:10;101369.41;;;16.03;84.54
13593;BME280;6867;50.998;4.250;2023-05-12T02:37:37;101365.50;;;15.99;84.16
13593;BME280;6867;50.998;4.250;2023-05-12T02:40:04;101366.31;;;15.99;84.47
13593;BME280;6867;50.998;4.250;2023-05-12T02:42:32;101366.78;;;15.96;84.23
13593;BME280;6867;50.998;4.250;2023-05-12T02:44:59;101364.44;;;16.00;84.45
13593;BME280;6867;50.998;4.250;2023-05-12T02:47:27;101362.56;;;16.00;84.32
13593;BME280;6867;50.998;4.250;2023-05-12T02:49:55;101360.47;;;16.02;84.66
13593;BME280;6867;50.998;4.250;2023-05-12T02:52:23;101353.72;;;16.05;84.61
13593;BME280;6867;50.998;4.250;2023-05-12T02:54:50;101358.50;;;15.91;84.79
13593;BME280;6867;50.998;4.250;2023-05-12T02:57:17;101363.47;;;15.94;84.87
13593;BME280;6867;50.998;4.250;2023-05-12T02:59:43;101368.19;;;15.68;85.52
13593;BME280;6867;50.998;4.250;2023-05-12T03:02:10;101368.56;;;15.72;86.11
13593;BME280;6867;50.998;4.250;2023-05-12T03:04:37;101368.66;;;15.59;85.99
13593;BME280;6867;50.998;4.250;2023-05-12T03:07:04;101366.22;;;15.39;85.96
13593;BME280;6867;50.998;4.250;2023-05-12T03:09:32;101357.03;;;15.40;86.00
13593;BME280;6867;50.998;4.250;2023-05-12T03:11:59;101345.50;;;15.63;85.30
13593;BME280;6867;50.998;4.250;2023-05-12T03:14:26;101353.78;;;15.31;85.73
13593;BME280;6867;50.998;4.250;2023-05-12T03:16:52;101352.72;;;15.32;85.26
13593;BME280;6867;50.998;4.250;2023-05-12T03:19:19;101352.09;;;15.12;85.15
13593;BME280;6867;50.998;4.250;2023-05-12T03:21:46;101354.91;;;15.24;85.60
13593;BME280;6867;50.998;4.250;2023-05-12T03:24:12;101341.84;;;15.39;84.65
13593;BME280;6867;50.998;4.250;2023-05-12T03:26:41;101334.16;;;15.36;84.46
13593;BME280;6867;50.998;4.250;2023-05-12T03:29:07;101341.44;;;15.17;85.24
13593;BME280;6867;50.998;4.250;2023-05-12T03:31:34;101343.22;;;15.05;85.16
13593;BME280;6867;50.998;4.250;2023-05-12T03:34:01;101339.34;;;15.19;85.49
13593;BME280;6867;50.998;4.250;2023-05-12T03:36:27;101342.34;;;15.11;84.84
13593;BME280;6867;50.998;4.250;2023-05-12T03:38:54;101341.31;;;15.30;85.21
13593;BME280;6867;50.998;4.250;2023-05-12T03:41:21;101336.50;;;15.32;84.72
13593;BME280;6867;50.998;4.250;2023-05-12T03:43:49;101335.81;;;15.18;85.01
13593;BME280;6867;50.998;4.250;2023-05-12T03:46:16;101330.94;;;15.27;84.53
13593;BME280;6867;50.998;4.250;2023-05-12T03:48:42;101324.91;;;15.07;84.98
13593;BME280;6867;50.998;4.250;2023-05-12T03:51:09;101335.38;;;15.22;84.89
13593;BME280;6867;50.998;4.250;2023-05-12T03:53:35;101326.78;;;15.25;85.25
13593;BME280;6867;50.998;4.250;2023-05-12T03:56:04;101327.59;;;15.25;84.49
13593;BME280;6867;50.998;4.250;2023-05-12T03:58:31;101324.84;;;15.13;85.31
13593;BME280;6867;50.998;4.250;2023-05-12T04:00:59;101320.25;;;15.14;85.11
13593;BME280;6867;50.998;4.250;2023-05-12T04:03:26;101326.94;;;15.11;84.92
13593;BME280;6867;50.998;4.250;2023-05-12T04:05:56;101323.47;;;15.04;85.20
13593;BME280;6867;50.998;4.250;2023-05-12T04:08:23;101319.47;;;14.88;85.27
13593;BME280;6867;50.998;4.250;2023-05-12T04:10:50;101336.13;;;14.85;86.08
13593;BME280;6867;50.998;4.250;2023-05-12T04:13:19;101320.97;;;14.84;85.55
13593;BME280;6867;50.998;4.250;2023-05-12T04:15:46;101328.41;;;14.89;85.65
13593;BME280;6867;50.998;4.250;2023-05-12T04:18:14;101324.59;;;14.97;85.60
13593;BME280;6867;50.998;4.250;2023-05-12T04:20:42;101308.13;;;14.98;85.16
13593;BME280;6867;50.998;4.250;2023-05-12T04:23:09;101320.44;;;14.76;85.50
13593;BME280;6867;50.998;4.250;2023-05-12T04:25:37;101321.06;;;14.71;86.07
13593;BME280;6867;50.998;4.250;2023-05-12T04:28:04;101317.50;;;14.77;85.59
13593;BME280;6867;50.998;4.250;2023-05-12T04:30:31;101312.50;;;14.74;85.45
13593;BME280;6867;50.998;4.250;2023-05-12T04:32:57;101314.66;;;14.90;85.29
13593;BME280;6867;50.998;4.250;2023-05-12T04:35:25;101311.16;;;14.65;84.77
13593;BME280;6867;50.998;4.250;2023-05-12T04:37:52;101314.28;;;14.05;85.75
13593;BME280;6867;50.998;4.250;2023-05-12T04:40:19;101327.63;;;13.93;86.96
13593;BME280;6867;50.998;4.250;2023-05-12T04:42:46;101325.78;;;14.26;87.44
13593;BME280;6867;50.998;4.250;2023-05-12T04:45:12;101321.38;;;14.31;86.11
13593;BME280;6867;50.998;4.250;2023-05-12T04:47:40;101321.59;;;14.30;85.88
13593;BME280;6867;50.998;4.250;2023-05-12T04:50:07;101317.19;;;14.35;85.47
13593;BME280;6867;50.998;4.250;2023-05-12T04:52:36;101316.19;;;14.30;85.89
13593;BME280;6867;50.998;4.250;2023-05-12T04:55:03;101323.28;;;14.24;85.84
13593;BME280;6867;50.998;4.250;2023-05-12T04:57:30;101323.66;;;14.28;85.20
13593;BME280;6867;50.998;4.250;2023-05-12T04:59:56;101329.00;;;14.09;85.96
13593;BME280;6867;50.998;4.250;2023-05-12T05:02:24;101326.78;;;14.31;85.58
13593;BME280;6867;50.998;4.250;2023-05-12T05:04:50;101330.59;;;14.17;85.89
13593;BME280;6867;50.998;4.250;2023-05-12T05:07:18;101328.03;;;14.29;85.34
13593;BME280;6867;50.998;4.250;2023-05-12T05:09:46;101334.50;;;14.21;85.88
13593;BME280;6867;50.998;4.250;2023-05-12T05:12:13;101322.75;;;14.40;84.70
13593;BME280;6867;50.998;4.250;2023-05-12T05:14:39;101328.81;;;14.04;84.92
13593;BME280;6867;50.998;4.250;2023-05-12T05:17:06;101334.19;;;14.42;85.05
13593;BME280;6867;50.998;4.250;2023-05-12T05:19:33;101328.09;;;14.22;84.80
13593;BME280;6867;50.998;4.250;2023-05-12T05:22:00;101328.78;;;14.42;84.67
13593;BME280;6867;50.998;4.250;2023-05-12T05:24:27;101326.53;;;14.33;84.84
13593;BME280;6867;50.998;4.250;2023-05-12T05:26:55;101331.16;;;14.57;84.79
13593;BME280;6867;50.998;4.250;2023-05-12T05:29:22;101337.19;;;14.28;85.18
13593;BME280;6867;50.998;4.250;2023-05-12T05:31:48;101330.81;;;14.15;85.74
13593;BME280;6867;50.998;4.250;2023-05-12T05:34:15;101338.53;;;14.43;85.44
13593;BME280;6867;50.998;4.250;2023-05-12T05:36:42;101328.31;;;14.45;85.06
13593;BME280;6867;50.998;4.250;2023-05-12T05:39:09;101329.31;;;14.26;84.73
13593;BME280;6867;50.998;4.250;2023-05-12T05:41:37;101328.66;;;14.31;85.08
13593;BME280;6867;50.998;4.250;2023-05-12T05:44:05;101324.03;;;14.63;84.50
13593;BME280;6867;50.998;4.250;2023-05-12T05:46:31;101319.81;;;14.49;84.57
13593;BME280;6867;50.998;4.250;2023-05-12T05:48:58;101330.78;;;14.54;84.68
13593;BME280;6867;50.998;4.250;2023-05-12T05:51:25;101326.44;;;14.46;84.61
13593;BME280;6867;50.998;4.250;2023-05-12T05:53:51;101323.66;;;14.28;85.03
13593;BME280;6867;50.998;4.250;2023-05-12T05:56:18;101333.31;;;14.42;85.23
13593;BME280;6867;50.998;4.250;2023-05-12T05:58:45;101331.47;;;14.42;85.26
13593;BME280;6867;50.998;4.250;2023-05-12T06:01:13;101342.19;;;14.24;85.83
13593;BME280;6867;50.998;4.250;2023-05-12T06:03:40;101326.69;;;14.13;85.52
13593;BME280;6867;50.998;4.250;2023-05-12T06:06:07;101333.88;;;14.26;85.73
13593;BME280;6867;50.998;4.250;2023-05-12T06:08:34;101336.53;;;14.32;86.05
13593;BME280;6867;50.998;4.250;2023-05-12T06:11:01;101324.00;;;14.13;85.48
13593;BME280;6867;50.998;4.250;2023-05-12T06:13:27;101331.38;;;14.24;85.95
13593;BME280;6867;50.998;4.250;2023-05-12T06:15:54;101327.25;;;14.22;85.48
13593;BME280;6867;50.998;4.250;2023-05-12T06:18:22;101333.09;;;14.50;85.38
13593;BME280;6867;50.998;4.250;2023-05-12T06:20:49;101321.25;;;14.44;85.47
13593;BME280;6867;50.998;4.250;2023-05-12T06:23:15;101322.59;;;14.35;85.57
13593;BME280;6867;50.998;4.250;2023-05-12T06:25:42;101319.59;;;14.18;85.40
13593;BME280;6867;50.998;4.250;2023-05-12T06:28:09;101315.22;;;14.49;85.17
13593;BME280;6867;50.998;4.250;2023-05-12T06:30:35;101316.88;;;14.50;85.61
13593;BME280;6867;50.998;4.250;2023-05-12T06:33:02;101303.69;;;14.60;84.43
13593;BME280;6867;50.998;4.250;2023-05-12T06:35:30;101299.34;;;14.59;84.76
13593;BME280;6867;50.998;4.250;2023-05-12T06:37:57;101306.03;;;14.57;84.60
13593;BME280;6867;50.998;4.250;2023-05-12T06:40:24;101312.78;;;14.66;85.22
13593;BME280;6867;50.998;4.250;2023-05-12T06:42:51;101311.03;;;14.53;84.89
13593;BME280;6867;50.998;4.250;2023-05-12T06:45:18;101306.53;;;14.72;84.77
13593;BME280;6867;50.998;4.250;2023-05-12T06:47:45;101308.84;;;14.37;85.70
13593;BME280;6867;50.998;4.250;2023-05-12T06:50:11;101301.13;;;14.72;84.91
13593;BME280;6867;50.998;4.250;2023-05-12T06:52:41;101302.06;;;14.59;85.34
13593;BME280;6867;50.998;4.250;2023-05-12T06:55:08;101300.03;;;14.55;85.78
13593;BME280;6867;50.998;4.250;2023-05-12T06:57:35;101302.13;;;14.71;85.34
13593;BME280;6867;50.998;4.250;2023-05-12T07:00:02;101310.09;;;14.66;85.72
13593;BME280;6867;50.998;4.250;2023-05-12T07:02:29;101304.25;;;14.37;85.76
13593;BME280;6867;50.998;4.250;2023-05-12T07:04:56;101305.94;;;14.07;87.42
13593;BME280;6867;50.998;4.250;2023-05-12T07:07:22;101309.00;;;14.49;87.19
13593;BME280;6867;50.998;4.250;2023-05-12T07:09:50;101308.25;;;14.35;87.38
13593;BME280;6867;50.998;4.250;2023-05-12T07:12:17;101301.28;;;14.52;86.38
13593;BME280;6867;50.998;4.250;2023-05-12T07:14:44;101297.56;;;14.47;87.04
13593;BME280;6867;50.998;4.250;2023-05-12T07:17:10;101305.47;;;14.41;87.58
13593;BME280;6867;50.998;4.250;2023-05-12T07:19:37;101292.06;;;14.60;87.65
13593;BME280;6867;50.998;4.250;2023-05-12T07:22:04;101286.91;;;14.77;87.18
13593;BME280;6867;50.998;4.250;2023-05-12T07:24:31;101287.13;;;14.50;87.69
13593;BME280;6867;50.998;4.250;2023-05-12T07:26:59;101300.59;;;14.82;87.69
13593;BME280;6867;50.998;4.250;2023-05-12T07:29:26;101284.66;;;14.92;88.00
13593;BME280;6867;50.998;4.250;2023-05-12T07:31:53;101290.22;;;14.79;87.75
13593;BME280;6867;50.998;4.250;2023-05-12T07:34:20;101297.00;;;14.63;88.58
13593;BME280;6867;50.998;4.250;2023-05-12T07:36:46;101292.53;;;14.75;88.51
13593;BME280;6867;50.998;4.250;2023-05-12T07:39:13;101291.81;;;15.05;87.56
13593;BME280;6867;50.998;4.250;2023-05-12T07:41:43;101287.00;;;15.25;87.82
13593;BME280;6867;50.998;4.250;2023-05-12T07:44:11;101295.97;;;15.44;86.78
13593;BME280;6867;50.998;4.250;2023-05-12T07:46:38;101277.41;;;15.11;86.92
13593;BME280;6867;50.998;4.250;2023-05-12T07:49:05;101285.81;;;15.03;88.30
13593;BME280;6867;50.998;4.250;2023-05-12T07:51:32;101286.09;;;15.13;88.18
13593;BME280;6867;50.998;4.250;2023-05-12T07:53:58;101286.03;;;15.38;86.98
13593;BME280;6867;50.998;4.250;2023-05-12T07:56:25;101282.19;;;15.45;86.57
13593;BME280;6867;50.998;4.250;2023-05-12T07:58:52;101280.88;;;15.18;87.31
13593;BME280;6867;50.998;4.250;2023-05-12T08:01:20;101285.91;;;15.63;87.24
13593;BME280;6867;50.998;4.250;2023-05-12T08:03:48;101282.50;;;15.56;86.69
13593;BME280;6867;50.998;4.250;2023-05-12T08:06:15;101294.66;;;15.47;87.13
13593;BME280;6867;50.998;4.250;2023-05-12T08:08:42;101291.81;;;15.41;86.97
13593;BME280;6867;50.998;4.250;2023-05-12T08:11:09;101283.97;;;15.88;86.61
13593;BME280;6867;50.998;4.250;2023-05-12T08:13:37;101284.13;;;15.75;86.77
13593;BME280;6867;50.998;4.250;2023-05-12T08:16:04;101285.59;;;15.89;86.68
13593;BME280;6867;50.998;4.250;2023-05-12T08:18:32;101277.53;;;16.01;85.92
13593;BME280;6867;50.998;4.250;2023-05-12T08:20:59;101289.34;;;16.18;85.74
13593;BME280;6867;50.998;4.250;2023-05-12T08:23:25;101280.75;;;16.33;85.03
13593;BME280;6867;50.998;4.250;2023-05-12T08:25:52;101283.81;;;16.25;85.31
13593;BME280;6867;50.998;4.250;2023-05-12T08:28:19;101277.13;;;16.39;84.86
13593;BME280;6867;50.998;4.250;2023-05-12T08:30:45;101277.47;;;16.55;84.42
13593;BME280;6867;50.998;4.250;2023-05-12T08:33:12;101292.22;;;16.35;85.20
13593;BME280;6867;50.998;4.250;2023-05-12T08:35:40;101302.13;;;16.00;85.90
13593;BME280;6867;50.998;4.250;2023-05-12T08:38:07;101302.00;;;16.36;85.98
13593;BME280;6867;50.998;4.250;2023-05-12T08:40:42;101298.47;;;16.48;85.33
13593;BME280;6867;50.998;4.250;2023-05-12T08:43:18;101301.16;;;16.36;85.21
13593;BME280;6867;50.998;4.250;2023-05-12T08:45:46;101301.50;;;16.28;85.04
13593;BME280;6867;50.998;4.250;2023-05-12T08:48:14;101305.94;;;16.64;84.65
13593;BME280;6867;50.998;4.250;2023-05-12T08:50:44;101302.66;;;16.85;83.71
13593;BME280;6867;50.998;4.250;2023-05-12T08:53:14;101312.44;;;16.98;83.50
13593;BME280;6867;50.998;4.250;2023-05-12T08:55:45;101312.44;;;17.10;83.12
13593;BME280;6867;50.998;4.250;2023-05-12T08:58:13;101307.13;;;17.15;82.63
13593;BME280;6867;50.998;4.250;2023-05-12T09:00:40;101318.66;;;17.22;82.46
13593;BME280;6867;50.998;4.250;2023-05-12T09:03:07;101313.00;;;16.88;82.69
13593;BME280;6867;50.998;4.250;2023-05-12T09:05:35;101318.22;;;17.02;83.19
13593;BME280;6867;50.998;4.250;2023-05-12T09:08:04;101319.03;;;17.14;83.12
13593;BME280;6867;50.998;4.250;2023-05-12T09:10:31;101318.16;;;17.37;82.68
13593;BME280;6867;50.998;4.250;2023-05-12T09:13:12;101326.25;;;17.60;82.61
13593;BME280;6867;50.998;4.250;2023-05-12T09:15:44;101329.66;;;17.67;82.34
13593;BME280;6867;50.998;4.250;2023-05-12T09:18:12;101328.31;;;17.94;81.33
13593;BME280;6867;50.998;4.250;2023-05-12T09:20:39;101324.56;;;17.83;81.08
13593;BME280;6867;50.998;4.250;2023-05-12T09:23:15;101323.91;;;18.21;80.17
13593;BME280;6867;50.998;4.250;2023-05-12T09:25:43;101329.19;;;18.28;79.71
13593;BME280;6867;50.998;4.250;2023-05-12T09:28:11;101331.94;;;18.45;79.06
13593;BME280;6867;50.998;4.250;2023-05-12T09:30:38;101328.84;;;19.08;78.83
13593;BME280;6867;50.998;4.250;2023-05-12T09:33:07;101320.03;;;19.01;77.12
13593;BME280;6867;50.998;4.250;2023-05-12T09:35:38;101291.38;;;19.15;74.72
13593;BME280;6867;50.998;4.250;2023-05-12T09:38:06;101287.47;;;19.28;74.04
13593;BME280;6867;50.998;4.250;2023-05-12T09:40:35;101285.09;;;19.59;72.81
13593;BME280;6867;50.998;4.250;2023-05-12T09:43:02;101283.56;;;19.90;72.14
13593;BME280;6867;50.998;4.250;2023-05-12T09:45:32;101276.28;;;20.01;70.34
13593;BME280;6867;50.998;4.250;2023-05-12T09:48:06;101274.09;;;20.30;69.49
13593;BME280;6867;50.998;4.250;2023-05-12T09:50:42;101262.28;;;20.51;68.40
13593;BME280;6867;50.998;4.250;2023-05-12T09:53:10;101239.69;;;19.92;67.39
13593;BME280;6867;50.998;4.250;2023-05-12T09:55:38;101261.69;;;19.36;68.21
13593;BME280;6867;50.998;4.250;2023-05-12T09:58:09;101289.03;;;19.46;69.25
13593;BME280;6867;50.998;4.250;2023-05-12T10:00:36;101294.16;;;19.42;69.61
13593;BME280;6867;50.998;4.250;2023-05-12T10:03:09;101295.22;;;19.85;68.61
13593;BME280;6867;50.998;4.250;2023-05-12T10:05:43;101306.44;;;20.16;68.79
13593;BME280;6867;50.998;4.250;2023-05-12T10:08:14;101307.69;;;20.35;68.55
13593;BME280;6867;50.998;4.250;2023-05-12T10:10:44;101300.03;;;19.73;68.66
13593;BME280;6867;50.998;4.250;2023-05-12T10:13:15;101286.41;;;19.73;68.19
13593;BME280;6867;50.998;4.250;2023-05-12T10:15:43;101315.56;;;20.00;68.70
13593;BME280;6867;50.998;4.250;2023-05-12T10:18:11;101299.09;;;19.89;67.81
13593;BME280;6867;50.998;4.250;2023-05-12T10:20:39;101306.34;;;19.57;68.55
13593;BME280;6867;50.998;4.250;2023-05-12T10:23:09;101330.59;;;19.80;69.09
13593;BME280;6867;50.998;4.250;2023-05-12T10:25:38;101326.94;;;19.92;68.73
13593;BME280;6867;50.998;4.250;2023-05-12T10:28:07;101328.69;;;20.03;68.64
13593;BME280;6867;50.998;4.250;2023-05-12T10:30:36;101314.34;;;20.45;67.40
13593;BME280;6867;50.998;4.250;2023-05-12T10:33:04;101321.06;;;20.05;67.76
13593;BME280;6867;50.998;4.250;2023-05-12T10:35:33;101301.34;;;20.25;67.03
13593;BME280;6867;50.998;4.250;2023-05-12T10:38:01;101300.34;;;20.68;66.33
13593;BME280;6867;50.998;4.250;2023-05-12T10:40:31;101338.31;;;21.07;67.56
13593;BME280;6867;50.998;4.250;2023-05-12T10:42:58;101309.63;;;21.67;65.52
13593;BME280;6867;50.998;4.250;2023-05-12T10:45:27;101281.88;;;20.80;65.01
13593;BME280;6867;50.998;4.250;2023-05-12T10:48:04;101283.91;;;21.00;64.48
13593;BME280;6867;50.998;4.250;2023-05-12T10:50:31;101284.25;;;20.02;65.59
13593;BME280;6867;50.998;4.250;2023-05-12T10:52:58;101330.28;;;19.55;67.86
13593;BME280;6867;50.998;4.250;2023-05-12T10:55:33;101359.00;;;19.40;68.80
13593;BME280;6867;50.998;4.250;2023-05-12T10:58:05;101344.28;;;19.20;69.43
13593;BME280;6867;50.998;4.250;2023-05-12T11:00:42;101366.34;;;18.84;70.31
13593;BME280;6867;50.998;4.250;2023-05-12T11:03:13;101371.03;;;18.72;70.85
13593;BME280;6867;50.998;4.250;2023-05-12T11:05:41;101366.63;;;18.54;71.16
13593;BME280;6867;50.998;4.250;2023-05-12T11:08:08;101357.28;;;18.79;70.89
13593;BME280;6867;50.998;4.250;2023-05-12T11:10:35;101371.88;;;18.89;71.42
13593;BME280;6867;50.998;4.250;2023-05-12T11:13:01;101369.47;;;19.49;70.35
13593;BME280;6867;50.998;4.250;2023-05-12T11:15:29;101362.72;;;19.73;69.83
13593;BME280;6867;50.998;4.250;2023-05-12T11:17:57;101357.69;;;20.41;68.63
13593;BME280;6867;50.998;4.250;2023-05-12T11:20:27;101351.69;;;20.12;68.28
13593;BME280;6867;50.998;4.250;2023-05-12T11:22:54;101342.72;;;20.17;67.48
13593;BME280;6867;50.998;4.250;2023-05-12T11:25:20;101348.84;;;20.29;67.37
13593;BME280;6867;50.998;4.250;2023-05-12T11:27:47;101351.06;;;20.05;67.37
13593;BME280;6867;50.998;4.250;2023-05-12T11:30:15;101373.31;;;19.97;68.10
13593;BME280;6867;50.998;4.250;2023-05-12T11:32:42;101390.09;;;20.10;68.36
13593;BME280;6867;50.998;4.250;2023-05-12T11:35:12;101392.28;;;20.35;68.32
13593;BME280;6867;50.998;4.250;2023-05-12T11:37:40;101395.59;;;20.37;68.60
13593;BME280;6867;50.998;4.250;2023-05-12T11:40:15;101422.69;;;19.95;69.84
13593;BME280;6867;50.998;4.250;2023-05-12T11:42:43;101441.50;;;19.19;72.74
13593;BME280;6867;50.998;4.250;2023-05-12T11:45:22;101445.59;;;19.38;72.62
13593;BME280;6867;50.998;4.250;2023-05-12T11:47:50;101457.31;;;18.60;75.09
13593;BME280;6867;50.998;4.250;2023-05-12T11:50:22;101445.59;;;19.05;74.81
13593;BME280;6867;50.998;4.250;2023-05-12T11:52:50;101439.19;;;19.67;73.76
13593;BME280;6867;50.998;4.250;2023-05-12T11:55:21;101428.88;;;19.90;73.06
13593;BME280;6867;50.998;4.250;2023-05-12T11:57:59;101402.34;;;20.57;70.57
13593;BME280;6867;50.998;4.250;2023-05-12T12:00:28;101390.28;;;19.99;70.25
13593;BME280;6867;50.998;4.250;2023-05-12T12:03:08;101389.94;;;20.76;69.04
13593;BME280;6867;50.998;4.250;2023-05-12T12:05:37;101392.44;;;20.78;68.33
13593;BME280;6867;50.998;4.250;2023-05-12T12:08:06;101393.78;;;20.75;68.03
13593;BME280;6867;50.998;4.250;2023-05-12T12:10:33;101392.00;;;20.10;68.65
13593;BME280;6867;50.998;4.250;2023-05-12T12:13:00;101405.41;;;20.11;68.93
13593;BME280;6867;50.998;4.250;2023-05-12T12:15:28;101412.59;;;20.45;69.12
13593;BME280;6867;50.998;4.250;2023-05-12T12:17:55;101401.75;;;20.82;68.45
13593;BME280;6867;50.998;4.250;2023-05-12T12:20:22;101381.19;;;21.49;66.41
13593;BME280;6867;50.998;4.250;2023-05-12T12:22:50;101369.13;;;22.12;64.72
13593;BME280;6867;50.998;4.250;2023-05-12T12:25:17;101348.66;;;22.66;62.78
13593;BME280;6867;50.998;4.250;2023-05-12T12:27:45;101309.63;;;23.35;60.06
13593;BME280;6867;50.998;4.250;2023-05-12T12:30:13;101313.63;;;23.64;59.31
13593;BME280;6867;50.998;4.250;2023-05-12T12:32:41;101300.28;;;23.36;59.22
13593;BME280;6867;50.998;4.250;2023-05-12T12:35:08;101292.78;;;22.82;59.04
13593;BME280;6867;50.998;4.250;2023-05-12T12:37:36;101339.34;;;22.62;60.31
13593;BME280;6867;50.998;4.250;2023-05-12T12:40:05;101354.28;;;21.98;61.63
13593;BME280;6867;50.998;4.250;2023-05-12T12:42:35;101355.50;;;22.53;61.37
13593;BME280;6867;50.998;4.250;2023-05-12T12:45:03;101362.34;;;22.76;61.16
13593;BME280;6867;50.998;4.250;2023-05-12T12:47:29;101260.91;;;23.22;56.90
13593;BME280;6867;50.998;4.250;2023-05-12T12:49:56;101299.22;;;23.27;57.45
13593;BME280;6867;50.998;4.250;2023-05-12T12:52:24;101335.50;;;22.83;59.26
13593;BME280;6867;50.998;4.250;2023-05-12T12:54:51;101315.81;;;22.41;58.98
13593;BME280;6867;50.998;4.250;2023-05-12T12:57:19;101368.19;;;21.81;61.25
13593;BME280;6867;50.998;4.250;2023-05-12T12:59:47;101339.31;;;22.16;59.90
13593;BME280;6867;50.998;4.250;2023-05-12T13:02:14;101344.13;;;21.78;60.14